Time;durP1;ratioP1;P1;durP2;ratioP2;P2;SDS_P1;SDS_P2;PMS_P1;PMS_P2;Temp;Humidity;BMP_temperature;BMP_pressure;BME280_temperature;BME280_humidity;BME280_pressure;Samples;Min_cycle;Max_cycle;Signal;HPM_P1;HPM_P2
2023/03/08 00:01:21;;;;;;;23.13;17.48;;;;;;;-0.08;100.00;100025.38;5115256;27;20035;-58
2023/03/08 00:03:49;;;;;;;26.63;18.17;;;;;;;-0.06;100.00;100031.34;5112683;28;20509;-54
2023/03/08 00:06:15;;;;;;;25.25;17.60;;;;;;;-0.06;100.00;100038.34;5112147;28;20042;-54
2023/03/08 00:08:41;;;;;;;23.15;18.25;;;;;;;-0.07;100.00;100032.25;5122632;27;20381;-55
2023/03/08 00:11:08;;;;;;;23.40;17.85;;;;;;;-0.07;100.00;100029.66;5131271;27;20020;-56
2023/03/08 00:13:34;;;;;;;26.48;18.80;;;;;;;-0.06;100.00;100025.28;5122066;27;20486;-55
2023/03/08 00:16:04;;;;;;;24.08;17.95;;;;;;;-0.06;100.00;100030.50;5112411;28;20098;-56
2023/03/08 00:18:30;;;;;;;25.17;18.52;;;;;;;-0.07;100.00;100024.44;5113270;28;20028;-56
2023/03/08 00:20:59;;;;;;;26.33;19.20;;;;;;;-0.06;100.00;100020.91;5112106;28;20492;-55
2023/03/08 00:23:25;;;;;;;26.35;19.13;;;;;;;-0.06;100.00;100022.69;5112604;28;20024;-56
2023/03/08 00:25:52;;;;;;;26.45;18.52;;;;;;;-0.07;100.00;100032.25;5112345;27;20032;-55
2023/03/08 00:28:17;;;;;;;25.92;17.65;;;;;;;-0.06;100.00;100038.34;5112973;28;20470;-57
2023/03/08 00:30:42;;;;;;;25.67;18.55;;;;;;;-0.05;100.00;100034.81;5112520;27;20035;-54
2023/03/08 00:33:08;;;;;;;26.40;18.40;;;;;;;-0.06;100.00;100031.34;5112557;28;20024;-55
2023/03/08 00:35:33;;;;;;;27.98;19.48;;;;;;;-0.06;100.00;100035.72;5111889;28;20030;-55
2023/03/08 00:37:58;;;;;;;25.50;20.02;;;;;;;-0.07;100.00;100021.81;5112037;28;20027;-53
2023/03/08 00:40:23;;;;;;;25.35;20.52;;;;;;;-0.06;100.00;100028.75;5114940;27;20024;-57
2023/03/08 00:42:49;;;;;;;27.20;20.40;;;;;;;-0.04;100.00;100031.28;5115380;27;20050;-54
2023/03/08 00:45:14;;;;;;;25.27;19.20;;;;;;;-0.05;100.00;100026.97;5115491;27;20455;-55
2023/03/08 00:47:39;;;;;;;27.35;19.88;;;;;;;-0.05;100.00;100021.75;5110299;28;20035;-54
2023/03/08 00:50:05;;;;;;;27.42;21.25;;;;;;;-0.04;100.00;100021.69;5112121;27;20381;-54
2023/03/08 00:52:31;;;;;;;27.75;20.55;;;;;;;-0.04;100.00;100013.00;5115477;27;20028;-54
2023/03/08 00:54:56;;;;;;;30.65;21.00;;;;;;;-0.01;100.00;100015.47;5110404;28;20028;-55
2023/03/08 00:57:21;;;;;;;31.58;22.52;;;;;;;-0.01;100.00;100024.16;5114812;27;20035;-54
2023/03/08 00:59:47;;;;;;;34.33;24.00;;;;;;;0.02;100.00;100022.31;5098525;27;20027;-53
2023/03/08 01:02:12;;;;;;;29.98;22.77;;;;;;;0.02;100.00;100017.97;5104129;28;20550;-53
2023/03/08 01:04:37;;;;;;;34.55;23.75;;;;;;;0.03;100.00;100017.03;5108355;27;20026;-55
2023/03/08 01:07:02;;;;;;;31.75;21.80;;;;;;;0.04;100.00;100012.66;5111861;28;20531;-55
2023/03/08 01:09:28;;;;;;;31.73;22.40;;;;;;;0.05;100.00;100004.78;5113303;27;20035;-54
2023/03/08 01:11:53;;;;;;;32.95;24.25;;;;;;;0.06;100.00;100003.00;5111180;28;20054;-55
2023/03/08 01:14:18;;;;;;;30.23;23.02;;;;;;;0.06;100.00;100000.38;5111611;28;20386;-55
2023/03/08 01:16:43;;;;;;;30.35;22.67;;;;;;;0.06;100.00;99997.78;5089842;28;20039;-54
2023/03/08 01:19:09;;;;;;;32.08;23.52;;;;;;;0.07;100.00;99989.03;5110180;27;20055;-54
2023/03/08 01:21:34;;;;;;;32.20;23.83;;;;;;;0.07;100.00;99987.25;5112004;28;20068;-57
2023/03/08 01:24:00;;;;;;;36.17;24.35;;;;;;;0.08;100.00;99975.88;5093669;27;20030;-56
2023/03/08 01:26:26;;;;;;;39.97;25.38;;;;;;;0.08;100.00;99969.81;5111812;28;20030;-54
2023/03/08 01:28:51;;;;;;;39.03;25.27;;;;;;;0.09;100.00;99967.13;5110493;27;20481;-55
2023/03/08 01:31:20;;;;;;;35.95;25.55;;;;;;;0.10;100.00;99965.38;5111605;28;20031;-57
2023/03/08 01:33:47;;;;;;;36.88;25.60;;;;;;;0.09;100.00;99961.91;5111939;27;20024;-54
2023/03/08 01:36:15;;;;;;;40.83;26.10;;;;;;;0.10;100.00;99953.19;5111378;28;20023;-54
2023/03/08 01:38:41;;;;;;;35.72;25.42;;;;;;;0.11;100.00;99954.00;5112287;27;20090;-53
2023/03/08 01:41:12;;;;;;;38.70;26.58;;;;;;;0.13;100.00;99952.16;5111342;28;20507;-55
2023/03/08 01:43:38;;;;;;;40.08;27.52;;;;;;;0.12;100.00;99945.28;5114564;27;20486;-54
2023/03/08 01:46:21;;;;;;;44.63;28.38;;;;;;;0.15;100.00;99943.34;5111307;28;20382;-57
2023/03/08 01:48:54;;;;;;;42.53;27.92;;;;;;;0.12;100.00;99937.44;5104297;27;20038;-54
2023/03/08 01:51:27;;;;;;;42.22;29.08;;;;;;;0.14;100.00;99930.38;5112794;27;20027;-54
2023/03/08 01:53:53;;;;;;;43.80;28.48;;;;;;;0.16;100.00;99937.19;5111571;28;20122;-53
2023/03/08 01:56:20;;;;;;;42.38;28.80;;;;;;;0.15;100.00;99938.13;5115060;27;20110;-55
2023/03/08 01:58:49;;;;;;;45.60;29.65;;;;;;;0.15;100.00;99930.31;5110422;27;20024;-54
2023/03/08 02:01:16;;;;;;;46.60;30.02;;;;;;;0.17;100.00;99931.06;5114723;27;20080;-55
2023/03/08 02:03:41;;;;;;;45.78;29.33;;;;;;;0.20;100.00;99929.22;5114525;28;20039;-56
2023/03/08 02:06:07;;;;;;;45.47;30.40;;;;;;;0.22;100.00;99932.59;5113401;27;20023;-57
2023/03/08 02:08:33;;;;;;;48.55;30.40;;;;;;;0.23;100.00;99932.53;5110284;28;20028;-57
2023/03/08 02:10:59;;;;;;;45.13;28.27;;;;;;;0.25;100.00;99922.00;5114968;28;20062;-58
2023/03/08 02:13:25;;;;;;;43.20;29.05;;;;;;;0.25;100.00;99915.03;5111207;28;20026;-57
2023/03/08 02:15:54;;;;;;;47.92;30.42;;;;;;;0.27;100.00;99907.97;5110850;28;20032;-55
2023/03/08 02:18:20;;;;;;;44.97;31.77;;;;;;;0.26;100.00;99906.25;5110227;28;20027;-54
2023/03/08 02:20:46;;;;;;;46.00;30.75;;;;;;;0.26;100.00;99895.81;5110344;28;20036;-54
2023/03/08 02:23:17;;;;;;;48.13;31.77;;;;;;;0.25;100.00;99894.16;5111657;28;20121;-56
2023/03/08 02:25:58;;;;;;;44.88;30.98;;;;;;;0.28;100.00;99887.91;5110733;28;20027;-55
2023/03/08 02:28:25;;;;;;;45.13;31.13;;;;;;;0.28;100.00;99888.75;5110925;28;20074;-54
2023/03/08 02:30:51;;;;;;;46.00;30.60;;;;;;;0.31;100.00;99892.97;5110024;28;20024;-55
2023/03/08 02:33:17;;;;;;;47.30;31.13;;;;;;;0.29;100.00;99885.22;5108659;28;20027;-55
2023/03/08 02:35:43;;;;;;;51.33;31.30;;;;;;;0.30;100.00;99883.44;5108153;28;20118;-54
2023/03/08 02:38:09;;;;;;;47.20;31.95;;;;;;;0.30;100.00;99881.69;5110413;28;20045;-55
2023/03/08 02:40:36;;;;;;;45.05;29.65;;;;;;;0.30;100.00;99873.88;5097808;28;20496;-57
2023/03/08 02:43:01;;;;;;;53.17;32.33;;;;;;;0.33;100.00;99875.47;5105906;28;20042;-56
2023/03/08 02:45:26;;;;;;;46.50;30.98;;;;;;;0.32;100.00;99873.78;5110853;28;20012;-55
2023/03/08 02:47:52;;;;;;;46.67;29.83;;;;;;;0.33;100.00;99870.25;5110224;28;20020;-55
2023/03/08 02:50:17;;;;;;;46.83;31.10;;;;;;;0.34;100.00;99862.31;5096323;28;20067;-55
2023/03/08 02:52:43;;;;;;;47.83;31.60;;;;;;;0.33;100.00;99875.47;5117095;28;20024;-54
2023/03/08 02:55:08;;;;;;;46.63;29.92;;;;;;;0.33;100.00;99870.25;5117685;28;20027;-55
2023/03/08 02:57:33;;;;;;;47.17;31.55;;;;;;;0.33;100.00;99865.00;5099778;28;20035;-55
2023/03/08 02:59:59;;;;;;;43.17;29.08;;;;;;;0.33;100.00;99865.00;5110249;28;20016;-56
2023/03/08 03:02:24;;;;;;;47.38;29.92;;;;;;;0.33;100.00;99859.78;5116889;28;20024;-55
2023/03/08 03:04:49;;;;;;;45.28;30.73;;;;;;;0.33;100.00;99859.78;5109721;28;20118;-56
2023/03/08 03:07:15;;;;;;;43.17;30.10;;;;;;;0.34;100.00;99862.31;5109990;28;20028;-54
2023/03/08 03:09:40;;;;;;;44.20;30.17;;;;;;;0.32;100.00;99842.44;5111380;28;20480;-57
2023/03/08 03:12:05;;;;;;;42.20;28.92;;;;;;;0.35;100.00;99834.44;5108408;28;20035;-56
2023/03/08 03:14:31;;;;;;;42.40;28.35;;;;;;;0.34;100.00;99844.03;5110085;28;20422;-55
2023/03/08 03:16:58;;;;;;;41.47;28.13;;;;;;;0.34;100.00;99836.22;5110380;28;20485;-55
2023/03/08 03:19:23;;;;;;;41.90;28.83;;;;;;;0.36;100.00;99833.53;5112770;28;20055;-58
2023/03/08 03:21:48;;;;;;;43.50;29.55;;;;;;;0.36;100.00;99836.13;5103193;28;20047;-57
2023/03/08 03:24:14;;;;;;;43.97;29.98;;;;;;;0.35;100.00;99832.69;5112288;27;20028;-55
2023/03/08 03:26:39;;;;;;;44.15;30.52;;;;;;;0.37;100.00;99822.16;5115089;28;20020;-56
2023/03/08 03:29:04;;;;;;;41.97;28.48;;;;;;;0.39;100.00;99815.09;5116091;27;20449;-56
2023/03/08 03:31:30;;;;;;;42.20;28.70;;;;;;;0.39;100.00;99809.88;5114988;28;20023;-54
2023/03/08 03:33:55;;;;;;;43.67;28.55;;;;;;;0.40;100.00;99795.03;5116228;27;20024;-56
2023/03/08 03:36:21;;;;;;;45.75;30.23;;;;;;;0.40;100.00;99787.19;5116112;27;20027;-55
2023/03/08 03:38:47;;;;;;;44.80;29.45;;;;;;;0.39;100.00;99783.75;5114184;27;20030;-54
2023/03/08 03:41:15;;;;;;;49.90;31.05;;;;;;;0.39;100.00;99788.97;5115027;28;20094;-55
2023/03/08 03:43:41;;;;;;;46.28;29.02;;;;;;;0.41;100.00;99786.28;5114678;28;20059;-56
2023/03/08 03:46:10;;;;;;;47.70;30.70;;;;;;;0.42;100.00;99790.56;5110409;27;20050;-55
2023/03/08 03:48:36;;;;;;;43.97;29.73;;;;;;;0.43;100.00;99780.03;5108996;28;20114;-57
2023/03/08 03:51:05;;;;;;;47.47;30.10;;;;;;;0.45;100.00;99785.19;5114169;28;20456;-54
2023/03/08 03:53:32;;;;;;;46.13;29.58;;;;;;;0.45;100.00;99788.66;5114424;28;20027;-56
2023/03/08 03:56:26;;;;;;;44.65;28.95;;;;;;;0.44;100.00;99776.50;5113982;28;20035;-54
2023/03/08 03:58:52;;;;;;;42.58;28.50;;;;;;;0.45;100.00;99769.50;5114751;28;20508;-54
2023/03/08 04:01:23;;;;;;;42.60;29.13;;;;;;;0.42;100.00;99770.53;5101429;28;20043;-55
2023/03/08 04:03:49;;;;;;;43.05;28.42;;;;;;;0.43;100.00;99771.38;5115033;27;20381;-59
2023/03/08 04:06:23;;;;;;;43.95;29.58;;;;;;;0.44;100.00;99767.84;5114795;27;20023;-56
2023/03/08 04:08:50;;;;;;;44.65;29.35;;;;;;;0.42;100.00;99759.22;5102466;28;20517;-55
2023/03/08 04:11:18;;;;;;;39.40;27.27;;;;;;;0.41;100.00;99761.00;5115336;27;20020;-54
2023/03/08 04:13:44;;;;;;;41.15;29.00;;;;;;;0.43;100.00;99755.69;5111308;27;20034;-56
2023/03/08 04:16:14;;;;;;;39.78;27.05;;;;;;;0.43;100.00;99747.84;5114398;28;20048;-54
2023/03/08 04:18:39;;;;;;;;;;;;;;;0.48;100.00;99748.44;5115051;27;20028;-54
2023/03/08 04:21:05;;;;;;;33.30;23.17;;;;;;;0.43;100.00;99737.41;5101392;28;19919;-55
2023/03/08 04:23:31;;;;;;;31.38;22.58;;;;;;;0.42;100.00;99725.25;5113925;27;20027;-54
2023/03/08 04:25:56;;;;;;;33.20;23.77;;;;;;;0.40;100.00;99732.34;5122476;27;20039;-57
2023/03/08 04:28:22;;;;;;;32.30;23.02;;;;;;;0.41;100.00;99723.59;5119941;27;20364;-58
2023/03/08 04:30:47;;;;;;;28.90;21.38;;;;;;;0.40;100.00;99716.66;5099359;27;20363;-56
2023/03/08 04:33:12;;;;;;;30.83;22.08;;;;;;;0.40;100.00;99719.28;5114358;28;20032;-57
2023/03/08 04:35:38;;;;;;;29.55;21.42;;;;;;;0.38;100.00;99716.75;5113950;27;20035;-54
2023/03/08 04:38:03;;;;;;;28.10;21.45;;;;;;;0.37;100.00;99717.69;5113623;28;20388;-58
2023/03/08 04:40:29;;;;;;;30.58;21.45;;;;;;;0.36;100.00;99706.38;5112870;28;20084;-58
2023/03/08 04:42:54;;;;;;;28.05;21.05;;;;;;;0.35;100.00;99698.63;5114151;28;20047;-56
2023/03/08 04:45:20;;;;;;;28.90;20.75;;;;;;;0.35;100.00;99696.00;5115512;27;20070;-58
2023/03/08 04:47:45;;;;;;;29.35;21.15;;;;;;;0.35;100.00;99696.00;5121045;27;20023;-58
2023/03/08 04:50:10;;;;;;;29.85;20.50;;;;;;;0.35;100.00;99683.81;5111447;28;20077;-56
2023/03/08 04:52:36;;;;;;;30.23;20.80;;;;;;;0.35;100.00;99686.41;5113840;27;20026;-55
2023/03/08 04:55:01;;;;;;;27.42;20.30;;;;;;;0.35;100.00;99682.94;5113616;28;20027;-54
2023/03/08 04:57:26;;;;;;;27.88;20.05;;;;;;;0.33;100.00;99675.22;5113898;28;20471;-57
2023/03/08 04:59:51;;;;;;;28.38;20.52;;;;;;;0.32;100.00;99673.50;5103980;28;20040;-59
2023/03/08 05:02:17;;;;;;;26.17;18.75;;;;;;;0.33;100.00;99667.38;5110162;28;20019;-57
2023/03/08 05:04:42;;;;;;;26.08;18.65;;;;;;;0.33;100.00;99656.06;5113288;28;20038;-57
2023/03/08 05:07:07;;;;;;;26.67;18.80;;;;;;;0.34;100.00;99652.53;5113093;28;20073;-56
2023/03/08 05:09:33;;;;;;;26.10;17.80;;;;;;;0.35;100.00;99662.03;5113192;28;20397;-58
2023/03/08 05:11:58;;;;;;;25.25;17.17;;;;;;;0.35;100.00;99651.59;5111677;28;20019;-58
2023/03/08 05:14:24;;;;;;;25.20;17.70;;;;;;;0.35;100.00;99651.59;5106611;28;20430;-54
2023/03/08 05:16:49;;;;;;;23.88;17.13;;;;;;;0.34;100.00;99652.53;5113156;27;20028;-55
2023/03/08 05:19:15;;;;;;;24.77;17.35;;;;;;;0.32;100.00;99641.34;5113047;28;20506;-58
2023/03/08 05:21:40;;;;;;;24.42;17.23;;;;;;;0.30;100.00;99643.16;5109595;27;20110;-54
2023/03/08 05:24:05;;;;;;;23.23;16.85;;;;;;;0.29;100.00;99639.72;5106992;28;20016;-58
2023/03/08 05:26:31;;;;;;;24.00;17.08;;;;;;;0.30;100.00;99630.09;5112367;28;20393;-59
2023/03/08 05:29:00;;;;;;;23.30;15.77;;;;;;;0.28;100.00;99627.56;5112570;28;20085;-59
2023/03/08 05:31:25;;;;;;;23.95;17.00;;;;;;;0.28;100.00;99624.13;5113494;27;20102;-58
2023/03/08 05:33:52;;;;;;;22.48;16.20;;;;;;;0.28;100.00;99622.34;5113119;28;20553;-58
2023/03/08 05:36:18;;;;;;;22.70;16.33;;;;;;;0.26;100.00;99611.16;5112865;28;20022;-58
2023/03/08 05:38:44;;;;;;;24.25;16.02;;;;;;;0.23;100.00;99598.25;5110337;27;20050;-59
2023/03/08 05:41:15;;;;;;;24.08;16.20;;;;;;;0.24;100.00;99592.13;5113158;27;20478;-57
2023/03/08 05:43:40;;;;;;;22.00;16.15;;;;;;;0.25;100.00;99592.97;5112027;28;20028;-58
2023/03/08 05:46:10;;;;;;;20.63;13.85;;;;;;;0.20;100.00;99584.53;5112758;28;20038;-59
2023/03/08 05:48:35;;;;;;;15.52;11.60;;;;;;;0.20;100.00;99581.91;5109870;28;20027;-58
2023/03/08 05:51:09;;;;;;;16.38;11.43;;;;;;;0.11;100.00;99584.09;5112353;28;20551;-59
2023/03/08 05:53:34;;;;;;;15.48;12.15;;;;;;;0.04;100.00;99572.31;5112535;28;20031;-59
2023/03/08 05:56:11;;;;;;;16.27;10.77;;;;;;;0.02;100.00;99566.34;5113116;28;20465;-58
2023/03/08 05:58:37;;;;;;;16.85;11.40;;;;;;;-0.01;100.00;99563.88;5110183;27;20381;-59
2023/03/08 06:01:28;;;;;;;15.85;11.07;;;;;;;0.02;100.00;99555.88;5102938;28;20081;-59
2023/03/08 06:03:56;;;;;;;15.93;11.73;;;;;;;-0.07;100.00;99544.16;5101343;28;20044;-59
2023/03/08 06:06:24;;;;;;;17.50;11.23;;;;;;;-0.07;100.00;99551.16;5108098;28;20428;-58
2023/03/08 06:08:49;;;;;;;15.20;10.93;;;;;;;-0.07;100.00;99546.75;5111599;28;20123;-57
2023/03/08 06:11:15;;;;;;;15.88;9.93;;;;;;;-0.08;100.00;99546.88;5112503;28;20110;-58
2023/03/08 06:13:40;;;;;;;12.70;9.23;;;;;;;-0.11;100.00;99549.66;5112187;28;20026;-58
2023/03/08 06:16:07;;;;;;;12.88;9.35;;;;;;;-0.15;100.00;99548.97;5095532;28;20043;-58
2023/03/08 06:18:34;;;;;;;11.82;8.02;;;;;;;-0.15;100.00;99553.31;5111374;28;20035;-54
2023/03/08 06:21:22;;;;;;;11.48;8.13;;;;;;;-0.16;100.00;99549.06;5112463;28;20078;-58
2023/03/08 06:23:48;;;;;;;10.48;7.63;;;;;;;-0.22;100.00;99545.84;5103421;28;20028;-58
2023/03/08 06:26:14;;;;;;;9.88;7.40;;;;;;;-0.23;100.00;99540.69;5101896;28;20028;-58
2023/03/08 06:28:40;;;;;;;11.02;6.40;;;;;;;-0.25;100.00;99540.78;5112232;28;20493;-57
2023/03/08 06:31:07;;;;;;;9.48;6.60;;;;;;;-0.30;100.00;99540.19;5107842;28;20370;-58
2023/03/08 06:33:33;;;;;;;11.45;7.05;;;;;;;-0.31;100.00;99541.09;5104519;28;20124;-55
2023/03/08 06:36:07;;;;;;;8.68;6.53;;;;;;;-0.29;100.00;99533.19;5111191;28;20110;-55
2023/03/08 06:38:34;;;;;;;10.15;7.10;;;;;;;-0.30;100.00;99528.88;5111988;28;20106;-57
2023/03/08 06:41:00;;;;;;;11.18;6.85;;;;;;;-0.32;100.00;99534.19;5111761;28;20409;-56
2023/03/08 06:43:26;;;;;;;9.05;6.32;;;;;;;-0.33;100.00;99531.66;5105148;28;20106;-55
2023/03/08 06:45:51;;;;;;;10.68;6.25;;;;;;;-0.37;100.00;99525.75;5111661;28;20439;-58
2023/03/08 06:48:17;;;;;;;8.75;5.25;;;;;;;-0.36;100.00;99535.28;5111947;28;20028;-57
2023/03/08 06:50:42;;;;;;;7.03;4.38;;;;;;;-0.38;100.00;99534.53;5111200;28;20047;-57
2023/03/08 06:53:08;;;;;;;5.43;4.30;;;;;;;-0.40;100.00;99536.34;5111886;28;20370;-57
2023/03/08 06:55:35;;;;;;;6.07;4.90;;;;;;;-0.42;100.00;99541.66;5115352;28;20062;-55
2023/03/08 06:58:00;;;;;;;8.48;4.88;;;;;;;-0.42;100.00;99531.25;5116236;27;20504;-52
2023/03/08 07:00:26;;;;;;;7.60;4.60;;;;;;;-0.43;100.00;99529.53;5113276;27;20051;-53
2023/03/08 07:02:52;;;;;;;6.50;4.57;;;;;;;-0.42;100.00;99530.38;5112013;27;20655;-53
2023/03/08 07:05:17;;;;;;;7.22;4.72;;;;;;;-0.43;100.00;99524.31;5116243;27;20042;-53
2023/03/08 07:07:43;;;;;;;5.85;4.35;;;;;;;-0.42;100.00;99530.38;5115055;28;20540;-53
2023/03/08 07:10:10;;;;;;;4.93;3.42;;;;;;;-0.44;100.00;99524.41;5104522;27;20027;-52
2023/03/08 07:12:39;;;;;;;11.13;4.40;;;;;;;-0.44;100.00;99521.78;5125398;27;20023;-52
2023/03/08 07:15:08;;;;;;;5.30;3.75;;;;;;;-0.44;100.00;99513.97;5112551;27;20073;-53
2023/03/08 07:17:34;;;;;;;5.43;3.97;;;;;;;-0.44;100.00;99513.97;5104762;28;20030;-51
2023/03/08 07:20:01;;;;;;;5.80;4.55;;;;;;;-0.43;100.00;99510.44;5119101;27;20058;-52
2023/03/08 07:22:29;;;;;;;6.82;3.95;;;;;;;-0.45;100.00;99507.91;5112475;28;20032;-53
2023/03/08 07:24:54;;;;;;;5.00;3.67;;;;;;;-0.43;100.00;99510.44;5108954;27;20031;-51
2023/03/08 07:27:19;;;;;;;5.68;4.20;;;;;;;-0.42;100.00;99505.16;5109619;27;20020;-51
2023/03/08 07:29:44;;;;;;;5.93;3.97;;;;;;;-0.43;100.00;99502.63;5111596;27;20041;-52
2023/03/08 07:32:10;;;;;;;5.25;3.80;;;;;;;-0.43;100.00;99495.63;5106891;27;20028;-52
2023/03/08 07:34:35;;;;;;;6.15;4.00;;;;;;;-0.45;100.00;99500.09;5107801;28;20031;-52
2023/03/08 07:37:00;;;;;;;4.90;4.05;;;;;;;-0.46;100.00;99481.91;5112349;28;20026;-51
2023/03/08 07:39:26;;;;;;;6.68;3.63;;;;;;;-0.47;100.00;99481.06;5111883;27;20470;-50
2023/03/08 07:41:51;;;;;;;5.93;3.83;;;;;;;-0.46;100.00;99482.75;5111035;28;20079;-52
2023/03/08 07:44:16;;;;;;;6.78;4.22;;;;;;;-0.45;100.00;99481.84;5106281;28;20379;-51
2023/03/08 07:46:41;;;;;;;5.93;4.47;;;;;;;-0.43;100.00;99474.75;5111360;27;20470;-53
2023/03/08 07:49:09;;;;;;;6.10;4.60;;;;;;;-0.41;100.00;99478.13;5114455;27;20067;-52
2023/03/08 07:51:35;;;;;;;7.47;5.32;;;;;;;-0.41;100.00;99483.34;5112920;28;20028;-54
2023/03/08 07:54:01;;;;;;;6.75;4.78;;;;;;;-0.39;100.00;99472.81;5106403;27;20024;-51
2023/03/08 07:56:26;;;;;;;10.40;6.00;;;;;;;-0.37;100.00;99470.97;5110088;27;20027;-52
2023/03/08 07:58:51;;;;;;;8.75;6.75;;;;;;;-0.37;100.00;99468.38;5111279;27;20050;-53
2023/03/08 08:01:16;;;;;;;10.65;6.97;;;;;;;-0.36;100.00;99464.00;5109983;27;20149;-51
2023/03/08 08:03:42;;;;;;;10.45;7.22;;;;;;;-0.38;100.00;99453.66;5112588;27;20032;-52
2023/03/08 08:06:07;;;;;;;9.05;6.68;;;;;;;-0.37;100.00;99457.94;5109256;27;20474;-55
2023/03/08 08:08:33;;;;;;;9.48;7.18;;;;;;;-0.34;100.00;99452.56;5113743;27;20398;-51
2023/03/08 08:10:58;;;;;;;10.98;7.53;;;;;;;-0.35;100.00;99452.63;5112882;28;20055;-52
2023/03/08 08:13:24;;;;;;;9.00;7.05;;;;;;;-0.35;100.00;99453.50;5113378;28;20031;-52
2023/03/08 08:16:00;;;;;;;11.05;7.40;;;;;;;-0.35;100.00;99453.50;5111736;27;20028;-52
2023/03/08 08:18:26;;;;;;;10.27;7.90;;;;;;;-0.35;100.00;99448.28;5110760;28;20052;-54
2023/03/08 08:21:03;;;;;;;12.20;8.48;;;;;;;-0.34;100.00;99442.13;5112988;27;20036;-53
2023/03/08 08:23:29;;;;;;;10.85;7.85;;;;;;;-0.33;100.00;99427.28;5109979;27;20058;-52
2023/03/08 08:25:54;;;;;;;11.02;8.55;;;;;;;-0.32;100.00;99424.59;5110276;28;20462;-51
2023/03/08 08:28:21;;;;;;;10.35;8.55;;;;;;;-0.28;100.00;99414.88;5111591;28;20123;-54
2023/03/08 08:30:59;;;;;;;12.43;8.98;;;;;;;-0.27;100.00;99424.34;5118951;27;20035;-51
2023/03/08 08:33:25;;;;;;;11.23;8.32;;;;;;;-0.31;100.00;99418.47;5108166;28;20027;-52
2023/03/08 08:35:50;;;;;;;10.05;8.02;;;;;;;-0.32;100.00;99411.56;5111061;27;20031;-52
2023/03/08 08:38:15;;;;;;;10.85;8.13;;;;;;;-0.34;100.00;99408.19;5108689;28;20377;-53
2023/03/08 08:40:40;;;;;;;12.73;9.25;;;;;;;-0.36;100.00;99399.63;5112354;27;20378;-53
2023/03/08 08:43:06;;;;;;;10.82;7.78;;;;;;;-0.37;100.00;99403.16;5112556;28;20035;-52
2023/03/08 08:45:31;;;;;;;9.38;7.47;;;;;;;-0.39;100.00;99405.84;5108371;28;20031;-52
2023/03/08 08:47:57;;;;;;;9.68;7.22;;;;;;;-0.38;100.00;99409.31;5105607;28;20024;-52
2023/03/08 08:50:22;;;;;;;8.82;7.07;;;;;;;-0.39;100.00;99408.44;5103035;28;20032;-54
2023/03/08 08:52:47;;;;;;;10.55;8.10;;;;;;;-0.37;100.00;99413.59;5111681;28;20027;-50
2023/03/08 08:55:12;;;;;;;9.05;7.43;;;;;;;-0.35;100.00;99423.94;5104151;28;20383;-53
2023/03/08 08:57:38;;;;;;;9.00;7.32;;;;;;;-0.34;100.00;99429.06;5113754;27;20031;-54
2023/03/08 09:00:07;;;;;;;10.52;7.75;;;;;;;-0.32;100.00;99436.81;5106280;28;20379;-52
2023/03/08 09:02:32;;;;;;;9.60;8.05;;;;;;;-0.32;100.00;99436.81;5107995;28;20040;-54
2023/03/08 09:04:58;;;;;;;8.80;7.03;;;;;;;-0.32;100.00;99431.59;5112960;27;20343;-52
2023/03/08 09:07:23;;;;;;;10.50;8.05;;;;;;;-0.33;100.00;99438.59;5114834;27;20072;-54
2023/03/08 09:09:48;;;;;;;8.98;8.07;;;;;;;-0.33;100.00;99441.19;5108994;28;20081;-53
2023/03/08 09:12:13;;;;;;;10.25;8.32;;;;;;;-0.33;100.00;99422.94;5114593;27;20034;-55
2023/03/08 09:14:39;;;;;;;13.00;10.07;;;;;;;-0.34;100.00;99409.97;5112963;27;20031;-54
2023/03/08 09:17:05;;;;;;;11.88;9.63;;;;;;;-0.36;100.00;99393.56;5112282;28;20165;-51
2023/03/08 09:19:31;;;;;;;12.10;8.98;;;;;;;-0.38;100.00;99378.00;5111966;28;20028;-55
2023/03/08 09:21:56;;;;;;;12.85;9.77;;;;;;;-0.37;100.00;99369.22;5109029;27;20031;-57
2023/03/08 09:24:21;;;;;;;11.70;9.77;;;;;;;-0.36;100.00;99368.31;5107186;28;20387;-54
2023/03/08 09:26:46;;;;;;;12.80;9.85;;;;;;;-0.33;100.00;99372.50;5105878;27;20604;-52
2023/03/08 09:29:12;;;;;;;12.73;10.45;;;;;;;-0.33;100.00;99359.47;5109746;28;20390;-51
2023/03/08 09:31:38;;;;;;;14.80;11.50;;;;;;;-0.33;100.00;99351.63;5109561;27;20357;-54
2023/03/08 09:34:07;;;;;;;13.38;11.07;;;;;;;-0.31;100.00;99355.03;5110075;28;20051;-53
2023/03/08 09:36:33;;;;;;;12.85;10.25;;;;;;;-0.29;100.00;99361.00;5109665;28;20061;-52
2023/03/08 09:38:58;;;;;;;12.27;9.27;;;;;;;-0.27;100.00;99354.75;5111034;27;20058;-51
2023/03/08 09:41:49;;;;;;;10.80;8.68;;;;;;;-0.27;100.00;99349.53;5104719;27;20095;-52
2023/03/08 09:44:42;;;;;;;10.85;9.00;;;;;;;-0.21;100.00;99338.75;5107106;28;20050;-51
2023/03/08 09:47:27;;;;;;;9.45;8.07;;;;;;;-0.21;100.00;99330.09;5108612;28;20114;-52
2023/03/08 09:50:06;;;;;;;11.85;8.65;;;;;;;-0.17;100.00;99331.59;5100749;28;20097;-60
2023/03/08 09:52:32;;;;;;;;;;;;;;;-0.11;100.00;99333.88;5113626;28;20056;-60
2023/03/08 09:54:59;;;;;;;10.18;8.98;;;;;;;-0.10;100.00;99332.09;5109417;28;20288;-60
2023/03/08 09:57:31;;;;;;;10.25;8.50;;;;;;;-0.08;100.00;99338.09;5106612;28;20028;-60
2023/03/08 09:59:59;;;;;;;10.13;8.40;;;;;;;-0.07;100.00;99334.53;5112175;28;20035;-60
2023/03/08 10:02:52;;;;;;;10.93;8.45;;;;;;;-0.01;100.00;99323.75;5105143;28;20076;-60
2023/03/08 10:05:26;;;;;;;11.50;9.60;;;;;;;0.02;100.00;99317.50;5111321;28;20032;-60
2023/03/08 10:08:17;;;;;;;12.68;9.98;;;;;;;0.10;100.00;99312.66;5111723;28;20035;-59
2023/03/08 10:10:59;;;;;;;12.45;10.52;;;;;;;0.15;100.00;99331.53;5112647;28;20019;-60
2023/03/08 10:13:37;;;;;;;16.42;11.88;;;;;;;0.19;100.00;99335.66;5103168;28;20027;-59
2023/03/08 10:16:10;;;;;;;14.50;12.27;;;;;;;0.21;100.00;99341.63;5112703;28;20032;-60
2023/03/08 10:18:49;;;;;;;17.75;14.27;;;;;;;0.22;100.00;99339.84;5105397;28;20055;-60
2023/03/08 10:21:17;;;;;;;18.23;14.85;;;;;;;0.21;100.00;99323.34;5108492;28;20035;-60
2023/03/08 10:24:07;;;;;;;15.82;14.13;;;;;;;0.22;100.00;99322.41;5112567;28;20028;-59
2023/03/08 10:26:32;;;;;;;;;;;;;;;0.28;100.00;99318.59;5070271;28;20039;-59
2023/03/08 10:28:58;;;;;;;24.23;16.85;;;;;;;0.25;100.00;99308.31;5112826;28;20385;-60
2023/03/08 10:31:26;;;;;;;21.35;16.35;;;;;;;0.25;100.00;99313.56;5115097;27;20377;-59
2023/03/08 10:34:16;;;;;;;21.27;17.23;;;;;;;0.25;100.00;99324.00;5108869;27;20153;-59
2023/03/08 10:36:52;;;;;;;22.17;17.25;;;;;;;0.23;100.00;99316.25;5113885;27;20045;-58
2023/03/08 10:39:19;;;;;;;20.42;16.52;;;;;;;0.31;100.00;99315.81;5116736;27;20063;-59
2023/03/08 10:41:48;;;;;;;19.27;16.35;;;;;;;0.32;100.00;99294.84;5114620;28;20056;-58
2023/03/08 10:44:29;;;;;;;18.63;15.27;;;;;;;0.32;100.00;99280.94;5115106;27;20018;-59
2023/03/08 10:46:55;;;;;;;19.15;15.23;;;;;;;0.32;100.00;99287.00;5114653;28;20049;-59
2023/03/08 10:49:23;;;;;;;18.35;14.82;;;;;;;0.32;100.00;99291.38;5098051;27;20034;-59
2023/03/08 10:51:59;;;;;;;19.30;15.40;;;;;;;0.36;100.00;99287.66;5105211;28;20607;-59
2023/03/08 10:54:27;;;;;;;21.35;16.42;;;;;;;0.33;100.00;99291.31;5115209;28;20063;-58
2023/03/08 10:57:00;;;;;;;18.42;15.15;;;;;;;0.34;100.00;99295.56;5114676;28;20020;-59
2023/03/08 10:59:33;;;;;;;20.75;16.42;;;;;;;0.33;100.00;99303.50;5114629;28;20569;-59
2023/03/08 11:02:17;;;;;;;18.60;15.13;;;;;;;0.34;100.00;99311.25;5114944;28;20130;-59
2023/03/08 11:04:54;;;;;;;20.73;16.33;;;;;;;0.33;100.00;99314.81;5115794;27;20489;-58
2023/03/08 11:07:25;;;;;;;21.25;17.35;;;;;;;0.34;100.00;99315.63;5123072;27;20038;-58
2023/03/08 11:09:51;;;;;;;20.52;16.90;;;;;;;0.37;100.00;99312.84;5108677;27;20073;-58
2023/03/08 11:12:24;;;;;;;19.48;16.48;;;;;;;0.40;100.00;99315.28;5116208;27;20485;-60
2023/03/08 11:14:51;;;;;;;18.00;15.68;;;;;;;0.39;100.00;99308.38;5112312;27;20038;-57
2023/03/08 11:17:29;;;;;;;18.33;15.23;;;;;;;0.41;100.00;99316.13;5108290;27;20031;-59
2023/03/08 11:20:00;;;;;;;19.15;16.40;;;;;;;0.41;100.00;99308.28;5107872;28;20026;-59